createdAt,value
2023-03-13T00:00:57.288Z,99.90
2023-03-13T00:44:25.194Z,99.90
2023-03-13T00:47:23.499Z,99.90
2023-03-13T00:49:51.693Z,99.90
2023-03-13T00:52:19.701Z,99.90
2023-03-13T00:54:47.821Z,99.90
2023-03-13T00:57:16.991Z,99.90
2023-03-13T00:59:44.843Z,99.90
2023-03-13T01:02:12.934Z,99.90
2023-03-13T01:04:40.873Z,99.90
2023-03-13T01:07:08.769Z,99.90
2023-03-13T01:09:36.708Z,99.90
2023-03-13T01:12:05.098Z,99.90
2023-03-13T01:14:34.381Z,99.90
2023-03-13T01:17:02.280Z,99.90
2023-03-13T01:19:30.133Z,99.90
2023-03-13T01:21:57.986Z,99.90
2023-03-13T01:24:25.913Z,99.90
2023-03-13T01:26:55.052Z,99.90
2023-03-13T01:29:23.033Z,99.90
2023-03-13T01:31:52.335Z,99.90
2023-03-13T01:34:20.212Z,99.90
2023-03-13T01:36:50.591Z,99.90
2023-03-13T01:39:21.478Z,99.90
2023-03-13T01:41:49.376Z,99.90
2023-03-13T01:44:23.302Z,99.90
2023-03-13T01:46:52.864Z,99.90
2023-03-13T01:49:24.661Z,99.90
2023-03-13T01:51:56.270Z,99.90
2023-03-13T01:54:33.681Z,99.90
2023-03-13T01:57:05.793Z,99.90
2023-03-13T01:59:38.338Z,99.90
2023-03-13T02:02:07.951Z,99.90
2023-03-13T02:04:39.281Z,99.90
2023-03-13T02:07:11.863Z,99.90
2023-03-13T02:09:40.784Z,99.90
2023-03-13T02:12:12.483Z,99.90
2023-03-13T02:14:44.149Z,99.90
2023-03-13T02:17:14.746Z,99.90
2023-03-13T02:19:45.276Z,99.90
2023-03-13T02:22:21.973Z,99.90
2023-03-13T02:24:57.515Z,99.90
2023-03-13T02:27:26.725Z,99.90
2023-03-13T02:29:54.914Z,99.90
2023-03-13T02:32:23.881Z,99.90
2023-03-13T02:34:56.967Z,99.90
2023-03-13T02:37:27.083Z,99.90
2023-03-13T02:39:57.127Z,99.90
2023-03-13T02:42:26.722Z,99.90
2023-03-13T02:44:54.689Z,99.90
2023-03-13T02:47:24.172Z,99.90
2023-03-13T02:49:53.958Z,99.90
2023-03-13T02:52:27.426Z,99.90
2023-03-13T02:54:59.314Z,99.90
2023-03-13T02:57:29.221Z,99.90
2023-03-13T02:59:57.184Z,99.90
2023-03-13T03:02:25.052Z,99.90
2023-03-13T03:04:52.954Z,99.90
2023-03-13T03:07:20.865Z,99.90
2023-03-13T03:09:48.798Z,99.90
2023-03-13T03:12:16.730Z,99.90
2023-03-13T03:14:46.027Z,99.90
2023-03-13T03:17:14.003Z,99.90
2023-03-13T03:19:41.948Z,99.90
2023-03-13T03:22:09.861Z,99.90
2023-03-13T03:24:37.850Z,99.90
2023-03-13T03:27:06.069Z,99.90
2023-03-13T03:29:34.039Z,99.90
2023-03-13T03:32:03.383Z,99.90
2023-03-13T03:34:31.350Z,99.90
2023-03-13T03:36:59.274Z,99.90
2023-03-13T03:39:27.138Z,99.90
2023-03-13T03:41:55.179Z,99.90
2023-03-13T03:44:46.634Z,99.90
2023-03-13T03:47:33.541Z,99.90
2023-03-13T03:50:55.996Z,99.90
2023-03-13T03:54:04.471Z,99.90
2023-03-13T03:57:00.522Z,99.90
2023-03-13T04:00:00.388Z,99.90
2023-03-13T04:04:09.661Z,99.90
2023-03-13T04:13:02.294Z,99.90
2023-03-13T04:16:00.390Z,99.90
2023-03-13T04:22:47.455Z,99.90
2023-03-13T04:29:20.122Z,99.90
2023-03-13T04:35:13.629Z,99.90
2023-03-13T04:38:34.675Z,99.90
2023-03-13T04:41:10.655Z,99.90
2023-03-13T04:43:58.208Z,99.90
2023-03-13T04:46:44.060Z,99.90
2023-03-13T04:49:21.664Z,99.90
2023-03-13T04:52:30.242Z,99.90
2023-03-13T04:55:41.537Z,99.90
2023-03-13T05:02:01.559Z,99.90
2023-03-13T05:08:41.123Z,99.90
2023-03-13T05:12:07.909Z,99.90
2023-03-13T05:15:06.130Z,99.90
2023-03-13T05:17:39.732Z,99.90
2023-03-13T05:20:26.456Z,99.90
2023-03-13T05:23:11.353Z,99.90
2023-03-13T05:28:51.609Z,99.90
2023-03-13T05:31:32.447Z,99.90
2023-03-13T05:34:18.410Z,99.90
2023-03-13T05:36:55.679Z,99.90
2023-03-13T05:39:33.884Z,99.90
2023-03-13T05:42:26.349Z,99.90
2023-03-13T05:45:06.956Z,99.90
2023-03-13T05:50:45.819Z,99.90
2023-03-13T05:53:16.159Z,99.90
2023-03-13T05:56:04.471Z,99.90
2023-03-13T05:58:35.082Z,99.90
2023-03-13T06:01:11.612Z,99.90
2023-03-13T06:03:45.453Z,99.90
2023-03-13T06:06:40.468Z,99.90
2023-03-13T06:09:47.108Z,99.90
2023-03-13T06:12:14.977Z,99.90
2023-03-13T06:14:43.295Z,99.90
2023-03-13T06:17:12.693Z,99.90
2023-03-13T06:19:40.540Z,99.90
2023-03-13T06:22:08.597Z,99.90
2023-03-13T06:24:37.164Z,99.90
2023-03-13T06:27:05.172Z,99.90
2023-03-13T06:29:33.074Z,99.90
2023-03-13T06:32:01.130Z,99.90
2023-03-13T06:34:32.716Z,99.90
2023-03-13T06:37:00.629Z,99.90
2023-03-13T06:39:29.543Z,99.90
2023-03-13T06:41:57.553Z,99.90
2023-03-13T06:44:25.717Z,99.90
2023-03-13T06:46:53.836Z,99.90
2023-03-13T06:49:22.099Z,99.90
2023-03-13T06:51:51.531Z,99.90
2023-03-13T06:54:19.445Z,99.90
2023-03-13T06:56:47.423Z,99.90
2023-03-13T06:59:15.450Z,99.90
2023-03-13T07:01:43.687Z,99.90
2023-03-13T07:04:14.166Z,99.90
2023-03-13T07:06:45.127Z,99.90
2023-03-13T07:09:14.516Z,99.90
2023-03-13T07:11:43.197Z,99.90
2023-03-13T07:14:16.997Z,99.90
2023-03-13T07:16:45.976Z,99.90
2023-03-13T07:19:14.317Z,99.90
2023-03-13T07:21:42.669Z,99.90
2023-03-13T07:24:10.755Z,99.90
2023-03-13T07:26:48.554Z,99.90
2023-03-13T07:29:22.438Z,99.90
2023-03-13T07:31:50.581Z,99.90
2023-03-13T07:34:18.789Z,99.90
2023-03-13T07:36:46.878Z,99.90
2023-03-13T07:39:14.844Z,99.90
2023-03-13T07:41:44.374Z,99.90
2023-03-13T07:44:14.768Z,99.90
2023-03-13T07:46:42.738Z,99.90
2023-03-13T07:49:10.692Z,99.90
2023-03-13T07:51:43.849Z,99.90
2023-03-13T07:54:12.579Z,99.90
2023-03-13T07:56:41.495Z,99.90
2023-03-13T07:59:12.382Z,99.90
2023-03-13T08:01:40.410Z,99.90
2023-03-13T08:04:08.856Z,99.90
2023-03-13T08:06:37.494Z,99.90
2023-03-13T08:09:06.696Z,99.90
2023-03-13T08:11:41.395Z,99.90
2023-03-13T08:14:14.873Z,99.90
2023-03-13T08:16:42.999Z,99.90
2023-03-13T08:19:13.271Z,99.90
2023-03-13T08:21:41.352Z,99.90
2023-03-13T08:24:10.713Z,99.90
2023-03-13T08:26:40.712Z,99.90
2023-03-13T08:29:12.405Z,99.90
2023-03-13T08:31:45.252Z,99.90
2023-03-13T08:34:14.438Z,99.90
2023-03-13T08:36:43.935Z,99.90
2023-03-13T08:39:14.641Z,99.90
2023-03-13T08:41:42.964Z,99.90
2023-03-13T08:44:24.046Z,99.90
2023-03-13T08:47:10.666Z,99.90
2023-03-13T08:49:54.500Z,99.90
2023-03-13T08:52:28.679Z,99.90
2023-03-13T08:55:03.388Z,99.90
2023-03-13T08:57:43.152Z,99.90
2023-03-13T09:00:37.851Z,99.90
2023-03-13T09:03:17.685Z,99.90
2023-03-13T09:05:55.971Z,99.90
2023-03-13T09:08:25.027Z,99.90
2023-03-13T09:10:57.771Z,99.90
2023-03-13T09:13:26.948Z,99.90
2023-03-13T09:16:00.636Z,99.90
2023-03-13T09:18:29.625Z,99.90
2023-03-13T09:20:57.714Z,99.90
2023-03-13T09:23:26.277Z,99.90
2023-03-13T09:25:55.476Z,99.90
2023-03-13T09:28:23.878Z,99.90
2023-03-13T09:30:52.081Z,99.90
2023-03-13T09:33:23.846Z,99.90
2023-03-13T09:35:51.985Z,99.90
2023-03-13T09:38:21.124Z,99.90
2023-03-13T09:41:05.423Z,99.90
2023-03-13T09:43:44.220Z,99.90
2023-03-13T09:46:17.767Z,99.90
2023-03-13T09:48:50.176Z,99.90
2023-03-13T09:51:22.505Z,99.90
2023-03-13T09:53:54.993Z,99.90
2023-03-13T09:56:25.212Z,99.90
2023-03-13T09:58:56.774Z,99.90
2023-03-13T10:01:29.695Z,99.90
2023-03-13T10:04:07.696Z,99.90
2023-03-13T10:06:41.174Z,99.90
2023-03-13T10:09:21.399Z,99.90
2023-03-13T10:11:56.224Z,99.90
2023-03-13T10:14:30.921Z,99.90
2023-03-13T10:17:06.330Z,99.90
2023-03-13T10:19:38.459Z,99.90
2023-03-13T10:22:18.418Z,99.90
2023-03-13T10:24:51.472Z,99.90
2023-03-13T10:27:19.354Z,99.90
2023-03-13T10:29:47.368Z,99.90
2023-03-13T10:32:17.767Z,99.90
2023-03-13T10:34:58.837Z,99.90
2023-03-13T10:37:28.966Z,99.90
2023-03-13T10:40:13.453Z,99.90
2023-03-13T10:42:45.431Z,99.90
2023-03-13T10:45:17.864Z,99.90
2023-03-13T10:47:55.016Z,99.90
2023-03-13T10:50:29.234Z,99.90
2023-03-13T10:53:24.783Z,99.90
2023-03-13T10:56:56.893Z,99.90
2023-03-13T10:59:57.225Z,99.90
2023-03-13T11:17:18.408Z,99.90
2023-03-13T11:21:38.205Z,99.90
2023-03-13T11:31:32.629Z,99.90
2023-03-13T11:34:19.329Z,99.90
2023-03-13T11:37:05.125Z,99.90
2023-03-13T11:40:04.093Z,99.90
2023-03-13T11:43:24.577Z,99.90
2023-03-13T11:46:22.796Z,99.90
2023-03-13T11:49:56.330Z,99.90
2023-03-13T11:52:35.215Z,99.90
2023-03-13T11:55:26.729Z,99.90
2023-03-13T11:58:04.313Z,99.90
2023-03-13T12:00:42.831Z,99.90
2023-03-13T12:03:33.798Z,99.90
2023-03-13T12:06:40.151Z,99.90
2023-03-13T12:09:18.730Z,99.90
2023-03-13T12:14:58.423Z,98.60
2023-03-13T12:17:34.624Z,97.90
2023-03-13T12:20:16.374Z,98.40
2023-03-13T12:22:52.653Z,97.30
2023-03-13T12:25:25.077Z,96.60
2023-03-13T12:27:59.047Z,97.40
2023-03-13T12:30:38.651Z,98.10
2023-03-13T12:33:17.710Z,99.90
2023-03-13T12:35:54.415Z,99.90
2023-03-13T12:38:27.215Z,99.90
2023-03-13T12:41:09.130Z,99.90
2023-03-13T12:43:41.299Z,99.90
2023-03-13T12:46:19.645Z,99.90
2023-03-13T12:49:14.489Z,99.90
2023-03-13T12:51:57.512Z,99.90
2023-03-13T12:54:58.492Z,99.90
2023-03-13T12:57:55.386Z,99.90
2023-03-13T13:00:36.003Z,99.90
2023-03-13T13:03:23.038Z,99.90
2023-03-13T13:06:16.137Z,99.90
2023-03-13T13:08:49.534Z,99.90
2023-03-13T13:11:36.849Z,99.90
2023-03-13T13:14:31.419Z,99.90
2023-03-13T13:17:20.104Z,99.90
2023-03-13T13:19:51.180Z,99.90
2023-03-13T13:22:49.633Z,99.90
2023-03-13T13:25:32.500Z,99.90
2023-03-13T13:28:23.384Z,99.90
2023-03-13T13:30:54.627Z,99.90
2023-03-13T13:33:41.477Z,99.90
2023-03-13T13:36:45.141Z,99.90
2023-03-13T13:39:43.456Z,99.90
2023-03-13T13:42:50.116Z,99.90
2023-03-13T13:46:02.173Z,99.90
2023-03-13T13:49:19.251Z,99.90
2023-03-13T13:52:32.008Z,99.90
2023-03-13T13:55:03.426Z,99.90
2023-03-13T13:57:34.019Z,99.90
2023-03-13T14:00:26.957Z,99.90
2023-03-13T14:02:59.528Z,99.90
2023-03-13T14:05:29.701Z,99.90
2023-03-13T14:08:04.382Z,99.90
2023-03-13T14:10:47.636Z,99.90
2023-03-13T14:13:17.686Z,99.90
2023-03-13T14:15:49.514Z,99.90
2023-03-13T14:18:23.376Z,99.90
2023-03-13T14:20:57.702Z,99.90
2023-03-13T14:23:51.783Z,99.90
2023-03-13T14:26:41.233Z,99.90
2023-03-13T14:29:25.922Z,99.90
2023-03-13T14:32:27.085Z,99.90
2023-03-13T14:34:59.201Z,99.90
2023-03-13T14:37:35.930Z,99.90
2023-03-13T14:40:10.174Z,99.90
2023-03-13T14:42:48.660Z,99.90
2023-03-13T14:45:27.057Z,99.90
2023-03-13T14:48:15.101Z,99.90
2023-03-13T14:51:14.763Z,99.90
2023-03-13T14:53:56.781Z,99.90
2023-03-13T14:56:42.403Z,99.90
2023-03-13T14:59:18.112Z,99.90
2023-03-13T15:01:47.138Z,99.90
2023-03-13T15:04:24.593Z,99.90
2023-03-13T15:07:15.012Z,99.90
2023-03-13T15:09:48.082Z,99.90
2023-03-13T15:12:26.043Z,99.90
2023-03-13T15:14:54.556Z,99.90
2023-03-13T15:17:37.617Z,99.90
2023-03-13T15:20:23.894Z,99.90
2023-03-13T15:22:53.056Z,99.90
2023-03-13T15:25:36.944Z,99.90
2023-03-13T15:28:14.635Z,99.90
2023-03-13T15:30:52.194Z,99.90
2023-03-13T15:33:22.225Z,99.90
2023-03-13T15:35:56.471Z,99.90
2023-03-13T15:38:50.670Z,99.90
2023-03-13T15:41:19.008Z,99.90
2023-03-13T15:43:55.503Z,99.90
2023-03-13T15:46:25.138Z,99.90
2023-03-13T15:48:54.184Z,99.90
2023-03-13T15:51:23.833Z,99.90
2023-03-13T15:53:53.191Z,99.90
2023-03-13T15:56:23.533Z,99.90
2023-03-13T15:58:52.121Z,99.90
2023-03-13T16:01:24.377Z,99.90
2023-03-13T16:03:52.769Z,99.90
2023-03-13T16:06:30.992Z,99.90
2023-03-13T16:09:02.777Z,99.90
2023-03-13T16:11:31.220Z,99.90
2023-03-13T16:13:59.548Z,99.90
2023-03-13T16:16:29.719Z,99.90
2023-03-13T16:19:04.231Z,99.90
2023-03-13T16:21:41.440Z,99.90
2023-03-13T16:24:12.467Z,99.90
2023-03-13T16:26:41.085Z,99.90
2023-03-13T16:29:20.883Z,99.90
2023-03-13T16:31:57.409Z,99.90
2023-03-13T16:34:35.886Z,99.90
2023-03-13T16:37:13.619Z,99.90
2023-03-13T16:39:45.817Z,99.90
2023-03-13T16:42:19.253Z,99.90
2023-03-13T16:44:56.410Z,99.90
2023-03-13T16:47:58.134Z,99.90
2023-03-13T16:50:35.946Z,99.90
2023-03-13T16:53:19.702Z,99.90
2023-03-13T16:55:51.431Z,99.90
2023-03-13T16:58:33.919Z,99.90
2023-03-13T17:01:05.976Z,99.90
2023-03-13T17:03:38.792Z,99.90
2023-03-13T17:06:14.606Z,99.90
2023-03-13T17:08:52.944Z,99.90
2023-03-13T17:11:39.353Z,99.90
2023-03-13T17:14:13.362Z,99.90
2023-03-13T17:16:54.727Z,99.90
2023-03-13T17:19:37.751Z,99.90
2023-03-13T17:22:11.214Z,99.90
2023-03-13T17:24:44.785Z,99.90
2023-03-13T17:27:23.518Z,99.90
2023-03-13T17:29:51.558Z,99.90
2023-03-13T17:32:23.967Z,99.90
2023-03-13T17:34:53.304Z,99.90
2023-03-13T17:37:25.266Z,99.90
2023-03-13T17:39:54.718Z,99.90
2023-03-13T17:42:23.344Z,99.90
2023-03-13T17:44:55.361Z,99.90
2023-03-13T17:47:26.430Z,99.90
2023-03-13T17:49:55.158Z,99.90
2023-03-13T17:52:23.420Z,99.90
2023-03-13T17:54:51.534Z,99.90
2023-03-13T17:57:24.166Z,99.90
2023-03-13T17:59:52.334Z,99.90
2023-03-13T18:02:21.017Z,99.90
2023-03-13T18:04:52.070Z,99.90
2023-03-13T18:07:29.535Z,99.90
2023-03-13T18:09:57.830Z,99.90
2023-03-13T18:12:27.517Z,99.90
2023-03-13T18:14:56.103Z,99.90
2023-03-13T18:17:25.975Z,99.90
2023-03-13T18:22:23.063Z,99.90
2023-03-13T18:24:51.307Z,99.90
2023-03-13T18:27:21.402Z,99.90
2023-03-13T18:29:53.007Z,99.90
2023-03-13T18:32:24.073Z,99.90
2023-03-13T18:34:52.021Z,99.90
2023-03-13T18:37:30.495Z,99.90
2023-03-13T18:40:03.180Z,99.90
2023-03-13T18:42:31.190Z,99.90
2023-03-13T18:45:00.493Z,99.90
2023-03-13T18:50:23.700Z,99.90
2023-03-13T18:52:55.412Z,99.90
2023-03-13T18:55:28.708Z,99.90
2023-03-13T18:58:13.003Z,99.90
2023-03-13T19:00:50.839Z,99.90
2023-03-13T19:03:22.032Z,99.90
2023-03-13T19:06:30.193Z,99.90
2023-03-13T19:13:14.460Z,99.90
2023-03-13T19:16:50.919Z,99.90
2023-03-13T19:23:22.110Z,99.90
2023-03-13T19:26:14.121Z,99.90
2023-03-13T19:32:59.454Z,99.90
2023-03-13T19:36:17.873Z,99.90
2023-03-13T19:40:00.781Z,99.90
2023-03-13T19:43:18.042Z,99.90
2023-03-13T19:47:00.682Z,99.90
2023-03-13T19:50:42.894Z,99.90
2023-03-13T19:54:11.066Z,99.90
2023-03-13T19:57:35.556Z,99.90
2023-03-13T20:00:46.209Z,99.90
2023-03-13T20:03:49.801Z,99.90
2023-03-13T20:07:22.531Z,99.90
2023-03-13T20:13:55.894Z,99.90
2023-03-13T20:17:05.889Z,99.90
2023-03-13T20:27:34.078Z,99.90
2023-03-13T20:31:09.678Z,99.90
2023-03-13T20:34:28.828Z,99.90
2023-03-13T20:44:35.438Z,99.90
2023-03-13T20:47:34.567Z,99.90
2023-03-13T20:50:18.528Z,99.90
2023-03-13T20:52:59.675Z,99.90
2023-03-13T20:56:07.879Z,99.90
2023-03-13T20:58:58.822Z,99.90
2023-03-13T21:01:40.969Z,99.90
2023-03-13T21:04:16.456Z,99.90
2023-03-13T21:06:57.797Z,99.90
2023-03-13T21:09:49.046Z,99.90
2023-03-13T21:15:19.077Z,99.90
2023-03-13T21:17:58.230Z,99.90
2023-03-13T21:20:40.780Z,99.90
2023-03-13T21:23:22.624Z,99.90
2023-03-13T21:26:09.698Z,99.90
2023-03-13T21:29:03.742Z,99.90
2023-03-13T21:31:48.253Z,99.90
2023-03-13T21:34:24.873Z,99.90
2023-03-13T21:36:57.828Z,99.90
2023-03-13T21:39:32.413Z,99.90
2023-03-13T21:42:09.997Z,99.90
2023-03-13T21:44:43.298Z,99.90
2023-03-13T21:47:16.201Z,99.90
2023-03-13T21:50:02.062Z,99.90
2023-03-13T21:52:42.752Z,99.90
2023-03-13T21:55:18.012Z,99.90
2023-03-13T21:57:52.497Z,99.90
2023-03-13T22:00:32.856Z,99.90
2023-03-13T22:03:11.419Z,99.90
2023-03-13T22:05:56.983Z,99.90
2023-03-13T22:08:33.111Z,99.90
2023-03-13T22:11:11.888Z,99.90
2023-03-13T22:14:10.221Z,99.90
2023-03-13T22:16:48.184Z,99.90
2023-03-13T22:19:25.388Z,99.90
2023-03-13T22:22:03.344Z,99.90
2023-03-13T22:24:38.874Z,99.90
2023-03-13T22:27:37.301Z,99.90
2023-03-13T22:30:18.030Z,99.90
2023-03-13T22:32:52.482Z,99.90
2023-03-13T22:35:36.193Z,99.90
2023-03-13T22:38:12.448Z,99.90
2023-03-13T22:40:45.667Z,99.90
2023-03-13T22:43:23.484Z,99.90
2023-03-13T22:45:51.921Z,99.90
2023-03-13T22:48:28.288Z,99.90
2023-03-13T22:51:08.375Z,99.90
2023-03-13T22:54:29.887Z,99.90
2023-03-13T22:57:08.498Z,99.90
2023-03-13T23:00:23.158Z,99.90
2023-03-13T23:03:26.690Z,99.90
2023-03-13T23:06:16.138Z,99.90
2023-03-13T23:09:23.958Z,99.90
2023-03-13T23:12:46.035Z,99.90
2023-03-13T23:16:09.055Z,99.90
2023-03-13T23:19:20.332Z,99.90
2023-03-13T23:22:24.121Z,99.90
2023-03-13T23:25:06.103Z,99.90
2023-03-13T23:27:59.494Z,99.90
2023-03-13T23:31:13.434Z,99.90
2023-03-13T23:33:57.419Z,99.90
2023-03-13T23:48:18.042Z,99.90
2023-03-13T23:50:58.450Z,99.90
2023-03-13T23:53:36.855Z,99.90
2023-03-13T23:57:12.259Z,99.90
